aviador You're here:

KPOB Decoded Metar

FAYETTEVILLE in NC, USA
Report Time2017-09-25 22:58:00
UTC Time2017-09-25 23:59:09
Flight Rules vfr VFR
Wind040° at 06 kt
W.Decomp.*RWY 05: 6.0 kt HW 0.3 kt LCW
W.Rank040° ranks 9
Current wind is below 040° avg. (6.2)
Visibility9999 m
Phenomena:N/A
Clouds:Overcast 042 Hf
Expected CloudBase > 2,400 ft AGL from Temp-Dew spread
Ceiling4,200 ft
Temp26°C (ISA +11)
Dew Point20°C (70% RH)
QNH1013 hPa
Density Alt1,847 ft
Elevation217 ft
Report Wrong Elevation
Raw Report
KPOB 252258Z AUTO 04006KT 10SM OVC042 26/20 A2990 RMK AO2 SLP126
T02590197 $=

Extra information for KPOB:More info

Metar Taf Metar & Taf Last 4 Metars F.Rules Stats Wind Profile Meteogram Temp Stats Airport Information Weather charts Add Link Nearby VenuesMetar ALERT Operation Metar Decoded Social comments

AIRNAV info for KPOB